Time;durP1;ratioP1;P1;durP2;ratioP2;P2;SDS_P1;SDS_P2;PMS_P1;PMS_P2;Temp;Humidity;BMP_temperature;BMP_pressure;BME280_temperature;BME280_humidity;BME280_pressure;Samples;Min_cycle;Max_cycle;Signal;HPM_P1;HPM_P2
2022/03/07 00:01:40;;;;;;;22.83;12.82;;;-2.30;99.90;;;;;;5096091;27;20479;-80
2022/03/07 00:04:05;;;;;;;21.55;13.48;;;-2.30;99.90;;;;;;5078751;28;20464;-79
2022/03/07 00:06:31;;;;;;;26.13;14.48;;;-2.40;99.90;;;;;;5081141;28;20031;-79
2022/03/07 00:08:57;;;;;;;19.48;12.13;;;-2.50;99.90;;;;;;5066511;27;20443;-79
2022/03/07 00:11:22;;;;;;;21.48;12.85;;;-2.50;99.90;;;;;;5086331;28;20028;-79
2022/03/07 00:13:48;;;;;;;24.38;14.00;;;-2.50;99.90;;;;;;5085367;28;20028;-79
2022/03/07 00:16:14;;;;;;;25.63;14.73;;;-2.50;99.90;;;;;;5069559;28;20032;-80
2022/03/07 00:18:39;;;;;;;28.45;14.00;;;-2.50;99.90;;;;;;5080705;27;20043;-79
2022/03/07 00:21:05;;;;;;;25.00;14.68;;;-2.50;99.90;;;;;;5096624;28;20032;-79
2022/03/07 00:23:31;;;;;;;25.13;13.45;;;-2.40;99.90;;;;;;5095045;28;20025;-79
2022/03/07 00:25:57;;;;;;;25.00;14.52;;;-2.40;99.90;;;;;;5066150;28;20090;-79
2022/03/07 00:28:22;;;;;;;23.48;13.70;;;-2.40;99.90;;;;;;5081114;28;20031;-79
2022/03/07 00:30:48;;;;;;;25.23;14.00;;;-2.40;99.90;;;;;;5074385;27;20424;-79
2022/03/07 00:33:16;;;;;;;27.85;14.55;;;-2.40;99.90;;;;;;5083095;28;20123;-80
2022/03/07 00:35:42;;;;;;;23.55;12.93;;;-2.30;99.90;;;;;;5079462;27;20483;-79
2022/03/07 00:38:08;;;;;;;21.33;13.02;;;-2.30;99.90;;;;;;5079333;28;20091;-79
2022/03/07 00:40:33;;;;;;;20.17;11.63;;;-2.30;99.90;;;;;;5081013;28;20055;-79
2022/03/07 00:42:59;;;;;;;22.58;12.75;;;-2.10;99.90;;;;;;5078372;28;20039;-79
2022/03/07 00:45:25;;;;;;;19.08;11.75;;;-2.30;99.90;;;;;;5065075;28;21061;-79
2022/03/07 00:47:50;;;;;;;23.00;12.45;;;-2.20;99.90;;;;;;5081563;27;20484;-79
2022/03/07 00:50:16;;;;;;;21.20;13.40;;;-2.20;99.90;;;;;;5097941;27;20031;-79
2022/03/07 00:52:41;;;;;;;22.50;14.25;;;-2.40;99.90;;;;;;5095545;27;20039;-80
2022/03/07 00:55:08;;;;;;;26.05;14.38;;;-2.50;99.90;;;;;;5082999;27;20038;-79
2022/03/07 00:57:34;;;;;;;26.35;13.88;;;-2.50;99.90;;;;;;5082647;27;20031;-79
2022/03/07 00:59:59;;;;;;;24.90;13.60;;;-2.50;99.90;;;;;;5076738;28;20031;-80
2022/03/07 01:02:25;;;;;;;30.13;16.10;;;-2.50;99.90;;;;;;5096730;28;20035;-79
2022/03/07 01:04:50;;;;;;;29.05;14.95;;;-2.40;99.90;;;;;;5069265;28;20054;-79
2022/03/07 01:07:16;;;;;;;32.38;16.88;;;-2.50;99.90;;;;;;5078212;27;20640;-80
2022/03/07 01:09:41;;;;;;;29.27;17.13;;;-2.50;99.90;;;;;;5093531;27;20034;-79
2022/03/07 01:12:07;;;;;;;28.92;14.70;;;-2.50;99.90;;;;;;5085363;28;20019;-80
2022/03/07 01:14:33;;;;;;;26.33;14.73;;;-2.40;99.90;;;;;;5079044;28;20032;-80
2022/03/07 01:16:59;;;;;;;25.63;14.05;;;-2.50;99.90;;;;;;5081237;28;20026;-79
2022/03/07 01:19:24;;;;;;;20.27;11.43;;;-2.50;99.90;;;;;;5066389;28;20039;-78
2022/03/07 01:21:51;;;;;;;25.20;13.23;;;-2.10;99.90;;;;;;5061157;28;20536;-79
2022/03/07 01:24:17;;;;;;;22.27;13.30;;;-2.30;99.90;;;;;;5077953;27;20146;-79
2022/03/07 01:26:43;;;;;;;24.65;11.73;;;-2.40;99.90;;;;;;5079912;27;20165;-79
2022/03/07 01:29:08;;;;;;;15.25;9.52;;;-2.40;99.90;;;;;;5078001;28;20024;-79
2022/03/07 01:31:34;;;;;;;25.75;14.15;;;-2.20;99.90;;;;;;5084764;27;20026;-79
2022/03/07 01:33:59;;;;;;;23.30;12.73;;;-2.30;99.90;;;;;;5066452;27;20024;-79
2022/03/07 01:36:25;;;;;;;28.20;14.65;;;-2.20;99.90;;;;;;5080555;28;20111;-79
2022/03/07 01:38:50;;;;;;;27.08;14.90;;;-2.40;99.90;;;;;;5082526;28;20024;-80
2022/03/07 01:41:16;;;;;;;27.05;14.38;;;-2.50;99.90;;;;;;5078636;27;20399;-79
2022/03/07 01:43:42;;;;;;;27.95;14.52;;;-2.70;99.90;;;;;;5080788;27;20092;-78
2022/03/07 01:46:09;;;;;;;28.95;15.40;;;-2.60;99.90;;;;;;5082142;27;20028;-78
2022/03/07 01:48:36;;;;;;;25.88;15.05;;;-2.60;99.90;;;;;;5086659;28;20498;-78
2022/03/07 01:51:02;;;;;;;28.25;15.77;;;-2.70;99.90;;;;;;5076524;28;20025;-78
2022/03/07 01:53:27;;;;;;;23.10;15.20;;;-2.70;99.90;;;;;;5067470;28;20022;-79
2022/03/07 01:55:54;;;;;;;20.73;10.85;;;-2.60;99.90;;;;;;5068333;28;20024;-78
2022/03/07 01:58:20;;;;;;;27.50;14.52;;;-2.30;99.90;;;;;;5085387;27;20023;-78
2022/03/07 02:00:47;;;;;;;25.10;14.70;;;-2.20;99.90;;;;;;5070440;28;20535;-79
2022/03/07 02:03:12;;;;;;;29.40;16.70;;;-2.60;99.90;;;;;;5063236;28;20050;-79
2022/03/07 02:05:38;;;;;;;30.15;16.42;;;-2.70;99.90;;;;;;5097125;28;20458;-79
2022/03/07 02:08:04;;;;;;;31.35;16.92;;;-2.70;99.90;;;;;;5092941;28;20387;-79
2022/03/07 02:10:30;;;;;;;29.40;17.20;;;-2.70;99.90;;;;;;5079532;27;20073;-79
2022/03/07 02:12:55;;;;;;;26.92;14.52;;;-2.70;99.90;;;;;;5097741;28;20048;-79
2022/03/07 02:15:21;;;;;;;25.25;15.40;;;-2.60;99.90;;;;;;5090866;28;20036;-79
2022/03/07 02:17:46;;;;;;;29.13;16.50;;;-2.60;99.90;;;;;;5069311;28;20055;-79
2022/03/07 02:20:13;;;;;;;29.25;16.42;;;-2.70;99.90;;;;;;5079177;27;20050;-78
2022/03/07 02:22:38;;;;;;;29.70;17.52;;;-2.70;99.90;;;;;;5093586;27;20035;-78
2022/03/07 02:25:05;;;;;;;24.08;13.25;;;-2.70;99.90;;;;;;5078561;27;20031;-79
2022/03/07 02:27:31;;;;;;;30.75;16.33;;;-2.40;99.90;;;;;;5079119;28;20097;-78
2022/03/07 02:29:59;;;;;;;30.58;17.30;;;-2.40;99.90;;;;;;5081448;28;20027;-78
2022/03/07 02:32:26;;;;;;;31.35;16.88;;;-2.50;99.90;;;;;;5071183;28;20030;-79
2022/03/07 02:34:52;;;;;;;33.55;17.90;;;-2.60;99.90;;;;;;5090846;28;20123;-78
2022/03/07 02:37:18;;;;;;;31.88;17.45;;;-2.60;99.90;;;;;;5079913;28;20547;-78
2022/03/07 02:39:44;;;;;;;31.17;17.38;;;-2.60;99.90;;;;;;5063759;28;20805;-78
2022/03/07 02:42:10;;;;;;;30.25;16.92;;;-2.60;99.90;;;;;;5097432;28;20114;-79
2022/03/07 02:44:35;;;;;;;31.02;17.13;;;-2.50;99.90;;;;;;5077476;28;20058;-78
2022/03/07 02:47:01;;;;;;;30.00;17.35;;;-2.30;99.90;;;;;;5068621;28;20384;-78
2022/03/07 02:49:26;;;;;;;28.90;17.05;;;-2.20;99.90;;;;;;5087300;28;20028;-79
2022/03/07 02:51:55;;;;;;;26.88;15.98;;;-2.30;99.90;;;;;;5081493;28;20397;-79
2022/03/07 02:54:20;;;;;;;31.30;16.58;;;-2.30;99.90;;;;;;5064932;27;20447;-79
2022/03/07 02:56:47;;;;;;;34.67;18.50;;;-2.00;99.90;;;;;;5071756;28;20048;-79
2022/03/07 02:59:13;;;;;;;36.40;19.23;;;-2.20;99.90;;;;;;5081048;28;20736;-79
2022/03/07 03:01:38;;;;;;;30.80;16.92;;;-2.30;99.90;;;;;;5069154;28;20036;-79
2022/03/07 03:04:04;;;;;;;32.20;17.27;;;-2.30;99.90;;;;;;5100331;28;20024;-79
2022/03/07 03:06:29;;;;;;;29.25;16.98;;;-2.30;99.90;;;;;;5085393;28;20103;-80
2022/03/07 03:08:55;;;;;;;33.92;17.88;;;-2.30;99.90;;;;;;5075192;28;20047;-79
2022/03/07 03:11:20;;;;;;;31.17;17.15;;;-2.30;99.90;;;;;;5085343;27;20123;-79
2022/03/07 03:13:46;;;;;;;30.40;16.25;;;-2.20;99.90;;;;;;5083328;28;20085;-79
2022/03/07 03:16:11;;;;;;;23.73;13.90;;;-2.10;99.90;;;;;;5066478;28;20043;-80
2022/03/07 03:18:37;;;;;;;28.30;15.70;;;-2.00;99.90;;;;;;5078147;27;20089;-79
2022/03/07 03:21:02;;;;;;;25.75;15.85;;;-1.90;99.90;;;;;;5077610;27;20028;-79
2022/03/07 03:23:28;;;;;;;22.58;13.68;;;-2.00;99.90;;;;;;5080658;28;20038;-80
2022/03/07 03:25:54;;;;;;;28.70;15.80;;;-2.00;99.90;;;;;;5098573;27;20504;-80
2022/03/07 03:28:19;;;;;;;31.48;17.08;;;-1.90;99.90;;;;;;5080899;28;20269;-79
2022/03/07 03:30:45;;;;;;;18.70;12.52;;;-1.90;99.90;;;;;;5092843;28;20105;-79
2022/03/07 03:33:10;;;;;;;29.27;15.57;;;-1.80;99.90;;;;;;5074872;27;20513;-80
2022/03/07 03:35:36;;;;;;;23.23;14.90;;;-1.70;99.90;;;;;;5100720;27;20031;-80
2022/03/07 03:38:05;;;;;;;29.25;15.65;;;-1.70;99.90;;;;;;5073918;27;20028;-80
2022/03/07 03:40:31;;;;;;;24.23;13.63;;;-1.80;99.90;;;;;;5079118;28;20056;-79
2022/03/07 03:42:56;;;;;;;21.70;13.52;;;-1.80;99.90;;;;;;5080046;28;20896;-80
2022/03/07 03:45:22;;;;;;;25.20;14.00;;;-1.60;99.90;;;;;;5098930;28;20391;-79
2022/03/07 03:47:47;;;;;;;25.30;14.82;;;-1.70;99.90;;;;;;5074869;27;20662;-79
2022/03/07 03:50:13;;;;;;;21.63;11.98;;;-1.70;99.90;;;;;;5080881;28;20032;-79
2022/03/07 03:52:40;;;;;;;24.33;14.25;;;-1.70;99.90;;;;;;5097466;27;20032;-80
2022/03/07 03:55:10;;;;;;;26.08;14.55;;;-1.60;99.90;;;;;;5078388;27;20506;-79
2022/03/07 03:57:38;;;;;;;22.48;13.20;;;-1.70;99.90;;;;;;5068940;28;20150;-79
2022/03/07 04:00:08;;;;;;;19.00;11.75;;;-1.60;99.90;;;;;;5079617;28;20028;-80
2022/03/07 04:02:33;;;;;;;27.02;14.60;;;-1.50;99.90;;;;;;5084867;27;20038;-80
2022/03/07 04:04:59;;;;;;;25.90;14.57;;;-1.30;99.90;;;;;;5067315;28;20410;-79
2022/03/07 04:07:25;;;;;;;24.90;14.77;;;-1.50;99.90;;;;;;5102461;27;20031;-79
2022/03/07 04:09:50;;;;;;;21.75;12.68;;;-1.60;99.90;;;;;;5089755;28;20035;-79
2022/03/07 04:12:16;;;;;;;26.95;14.27;;;-1.70;99.90;;;;;;5082547;28;20119;-79
2022/03/07 04:14:41;;;;;;;23.75;14.50;;;-1.60;99.90;;;;;;5098519;27;20169;-79
2022/03/07 04:17:07;;;;;;;23.88;13.55;;;-1.60;99.90;;;;;;5073960;27;20039;-80
2022/03/07 04:19:34;;;;;;;27.63;15.07;;;-1.50;99.90;;;;;;5097423;28;20028;-80
2022/03/07 04:21:59;;;;;;;23.55;14.52;;;-1.60;99.90;;;;;;5070081;28;20090;-79
2022/03/07 04:24:25;;;;;;;23.77;14.70;;;-1.70;99.90;;;;;;5084025;27;20410;-79
2022/03/07 04:26:50;;;;;;;27.63;15.15;;;-1.70;99.90;;;;;;5085647;28;20491;-79
2022/03/07 04:29:16;;;;;;;23.75;14.77;;;-1.80;99.90;;;;;;5080946;28;20403;-79
2022/03/07 04:31:42;;;;;;;24.98;13.80;;;-1.70;99.90;;;;;;5078126;28;20035;-79
2022/03/07 04:34:08;;;;;;;23.05;13.80;;;-1.70;99.90;;;;;;5068689;27;20036;-79
2022/03/07 04:36:35;;;;;;;24.23;14.50;;;-1.70;99.90;;;;;;5084765;28;20020;-79
2022/03/07 04:39:01;;;;;;;26.95;13.93;;;-1.70;99.90;;;;;;5066806;28;20039;-79
2022/03/07 04:41:27;;;;;;;23.38;14.25;;;-1.80;99.90;;;;;;5061025;27;20035;-80
2022/03/07 04:43:52;;;;;;;22.88;13.10;;;-1.70;99.90;;;;;;5079958;28;20026;-78
2022/03/07 04:46:18;;;;;;;23.40;14.80;;;-1.70;99.90;;;;;;5100309;28;20024;-78
2022/03/07 04:48:43;;;;;;;26.17;14.25;;;-1.70;99.90;;;;;;5094829;28;20032;-79
2022/03/07 04:51:09;;;;;;;20.42;13.00;;;-1.70;99.90;;;;;;5083750;27;20019;-79
2022/03/07 04:53:35;;;;;;;25.85;13.43;;;-1.70;99.90;;;;;;5097737;27;20433;-79
2022/03/07 04:56:00;;;;;;;23.05;12.13;;;-1.70;99.90;;;;;;5104801;28;20024;-79
2022/03/07 04:58:26;;;;;;;18.52;12.40;;;-1.60;99.90;;;;;;5098497;28;20024;-78
2022/03/07 05:00:53;;;;;;;22.40;13.13;;;-1.40;99.90;;;;;;5097382;28;20430;-78
2022/03/07 05:03:19;;;;;;;21.73;13.75;;;-1.50;99.90;;;;;;5095704;27;20100;-79
2022/03/07 05:05:45;;;;;;;27.27;14.20;;;-1.60;99.90;;;;;;5098154;28;20555;-79
2022/03/07 05:08:10;;;;;;;21.60;13.55;;;-1.70;99.90;;;;;;5065933;28;20044;-80
2022/03/07 05:10:36;;;;;;;19.98;13.82;;;-1.70;99.90;;;;;;5076804;28;20036;-80
2022/03/07 05:13:01;;;;;;;22.13;13.23;;;-1.70;99.90;;;;;;5080974;28;20032;-81
2022/03/07 05:15:27;;;;;;;20.52;13.15;;;-1.60;99.90;;;;;;5074584;28;20025;-80
2022/03/07 05:17:54;;;;;;;19.70;12.48;;;-1.60;99.90;;;;;;5085662;27;20126;-80
2022/03/07 05:20:22;;;;;;;20.05;13.07;;;-1.70;99.90;;;;;;5091537;27;20471;-81
2022/03/07 05:23:04;;;;;;;20.95;13.05;;;-1.70;99.90;;;;;;5071798;28;20036;-81
2022/03/07 05:25:30;;;;;;;20.25;12.90;;;-1.70;99.90;;;;;;5091292;27;20080;-86
2022/03/07 05:27:55;;;;;;;22.02;13.00;;;-1.80;99.90;;;;;;5060791;28;20036;-83
2022/03/07 05:30:21;;;;;;;23.10;12.02;;;-1.80;99.90;;;;;;5081080;28;20105;-84
2022/03/07 05:32:51;;;;;;;22.42;12.93;;;-1.70;99.90;;;;;;5074356;28;20047;-84
2022/03/07 05:35:17;;;;;;;24.63;13.38;;;-1.60;99.90;;;;;;5090294;27;20032;-85
2022/03/07 05:37:42;;;;;;;19.60;12.48;;;-1.70;99.90;;;;;;5085116;28;20081;-84
2022/03/07 05:40:09;;;;;;;19.00;11.90;;;-1.70;99.90;;;;;;5097485;28;20036;-83
2022/03/07 05:42:35;;;;;;;18.02;10.65;;;-1.80;99.90;;;;;;5081018;28;20036;-86
2022/03/07 05:45:01;;;;;;;18.27;11.77;;;-1.70;99.90;;;;;;5071025;28;20032;-86
2022/03/07 05:47:26;;;;;;;22.63;13.40;;;-1.60;99.90;;;;;;5086883;28;20024;-86
2022/03/07 05:49:52;;;;;;;17.35;12.15;;;-1.70;99.90;;;;;;5068194;28;20039;-84
2022/03/07 05:52:18;;;;;;;19.38;12.80;;;-1.80;99.90;;;;;;5087166;28;20264;-83
2022/03/07 05:54:43;;;;;;;25.48;13.00;;;-1.80;99.90;;;;;;5090552;28;20036;-86
2022/03/07 05:57:09;;;;;;;22.42;12.52;;;-1.80;99.90;;;;;;5085824;28;20036;-85
2022/03/07 05:59:34;;;;;;;19.00;11.98;;;-1.80;99.90;;;;;;5091200;28;20031;-85
2022/03/07 06:02:00;;;;;;;21.70;12.82;;;-1.80;99.90;;;;;;5086767;27;20093;-84
2022/03/07 06:04:26;;;;;;;22.70;12.75;;;-1.80;99.90;;;;;;5102900;27;20039;-84
2022/03/07 06:06:51;;;;;;;20.70;12.45;;;-1.80;99.90;;;;;;5079755;28;20118;-84
2022/03/07 06:09:17;;;;;;;22.23;12.45;;;-1.70;99.90;;;;;;5090615;28;20051;-85
2022/03/07 06:11:43;;;;;;;25.65;12.75;;;-1.70;99.90;;;;;;5089947;28;20436;-84
2022/03/07 06:14:08;;;;;;;20.15;11.52;;;-1.60;99.90;;;;;;5100145;27;20028;-85
2022/03/07 06:16:37;;;;;;;19.75;11.40;;;-1.70;99.90;;;;;;5089070;28;20024;-85
2022/03/07 06:19:02;;;;;;;19.92;11.57;;;-1.70;99.90;;;;;;5075715;28;20035;-84
2022/03/07 06:21:28;;;;;;;26.92;12.55;;;-1.70;99.90;;;;;;5098493;28;20387;-84
2022/03/07 06:23:53;;;;;;;20.15;12.18;;;-1.70;99.90;;;;;;5078581;28;20024;-84
2022/03/07 06:26:19;;;;;;;18.10;11.52;;;-1.70;99.90;;;;;;5086459;27;20032;-84
2022/03/07 06:28:45;;;;;;;25.25;12.60;;;-1.60;99.90;;;;;;5103288;27;20020;-84
2022/03/07 06:31:10;;;;;;;23.48;11.75;;;-1.60;99.90;;;;;;5072106;27;20035;-85
2022/03/07 06:33:36;;;;;;;20.77;11.65;;;-1.50;99.90;;;;;;5105690;28;20054;-84
2022/03/07 06:36:05;;;;;;;19.20;11.07;;;-1.50;99.90;;;;;;5091094;27;20395;-85
2022/03/07 06:38:31;;;;;;;21.63;11.60;;;-1.50;99.90;;;;;;5086347;28;20395;-86
2022/03/07 06:40:56;;;;;;;19.98;12.30;;;-1.50;99.90;;;;;;5082143;28;20051;-85
2022/03/07 06:43:22;;;;;;;18.67;10.93;;;-1.40;99.90;;;;;;5096130;28;20067;-84
2022/03/07 06:45:47;;;;;;;18.05;11.75;;;-1.40;99.90;;;;;;5094849;27;20085;-83
2022/03/07 06:48:13;;;;;;;17.13;11.32;;;-1.40;99.90;;;;;;5081765;28;20027;-85
2022/03/07 06:50:38;;;;;;;20.98;11.48;;;-1.40;99.90;;;;;;5082672;28;20503;-81
2022/03/07 06:53:04;;;;;;;16.77;10.90;;;-1.30;99.90;;;;;;5067585;28;20442;-84
2022/03/07 06:55:30;;;;;;;20.75;12.13;;;-1.30;99.90;;;;;;5082341;27;20091;-84
2022/03/07 06:57:55;;;;;;;17.85;11.25;;;-1.20;99.90;;;;;;5083333;27;20031;-85
2022/03/07 07:00:21;;;;;;;18.10;10.88;;;-1.20;99.90;;;;;;5083999;28;20122;-85
2022/03/07 07:02:46;;;;;;;16.50;11.30;;;-1.10;99.90;;;;;;5082765;28;20059;-85
2022/03/07 07:05:12;;;;;;;19.05;11.05;;;-1.00;99.90;;;;;;5082815;27;20060;-84
2022/03/07 07:07:38;;;;;;;22.83;12.15;;;-1.00;99.90;;;;;;5086629;28;20039;-84
2022/03/07 07:10:04;;;;;;;22.05;11.65;;;-0.90;99.90;;;;;;5065626;28;20441;-84
2022/03/07 07:12:30;;;;;;;17.55;11.60;;;-0.90;99.90;;;;;;5082325;28;20028;-84
2022/03/07 07:14:56;;;;;;;16.75;10.30;;;-0.80;99.90;;;;;;5079536;27;20092;-85
2022/03/07 07:17:21;;;;;;;17.52;9.68;;;-0.70;99.90;;;;;;5084448;27;20040;-84
2022/03/07 07:19:47;;;;;;;14.07;9.77;;;-0.60;99.90;;;;;;5079059;27;20386;-84
2022/03/07 07:22:12;;;;;;;19.65;10.77;;;-0.50;99.90;;;;;;5102023;27;20060;-85
2022/03/07 07:24:38;;;;;;;17.75;9.10;;;-0.50;99.90;;;;;;5087595;28;20036;-85
2022/03/07 07:27:04;;;;;;;24.17;10.10;;;-0.40;99.90;;;;;;5083766;28;20032;-84
2022/03/07 07:29:29;;;;;;;16.20;10.20;;;-0.30;99.90;;;;;;5083132;28;20032;-86
2022/03/07 07:31:55;;;;;;;14.98;7.68;;;-0.20;99.90;;;;;;5092671;27;20122;-86
2022/03/07 07:34:21;;;;;;;16.65;9.10;;;-0.10;99.90;;;;;;5110816;27;20090;-85
2022/03/07 07:36:47;;;;;;;12.07;8.70;;;0.10;99.90;;;;;;5084107;28;20028;-84
2022/03/07 07:39:13;;;;;;;13.18;8.00;;;0.20;99.90;;;;;;5087222;27;20047;-83
2022/03/07 07:41:38;;;;;;;14.55;8.80;;;0.20;99.90;;;;;;5099544;28;20099;-84
2022/03/07 07:44:04;;;;;;;15.15;8.57;;;0.20;99.90;;;;;;5087262;27;20024;-84
2022/03/07 07:46:29;;;;;;;13.65;6.55;;;0.30;99.90;;;;;;5086161;28;20035;-84
2022/03/07 07:48:55;;;;;;;13.65;7.30;;;0.50;99.90;;;;;;5096167;28;20028;-83
2022/03/07 07:51:21;;;;;;;11.73;7.53;;;0.70;99.90;;;;;;5097892;28;20039;-82
2022/03/07 07:53:46;;;;;;;10.43;7.07;;;0.80;99.90;;;;;;5097444;28;20032;-84
2022/03/07 07:56:12;;;;;;;11.90;7.35;;;0.90;99.90;;;;;;5096589;27;20035;-84
2022/03/07 07:58:38;;;;;;;16.20;7.78;;;1.10;99.90;;;;;;5080055;28;20084;-84
2022/03/07 08:01:03;;;;;;;10.05;6.63;;;1.00;99.90;;;;;;5081194;28;20039;-82
2022/03/07 08:03:29;;;;;;;9.80;6.22;;;1.10;99.90;;;;;;5087501;27;20115;-82
2022/03/07 08:05:55;;;;;;;7.95;5.15;;;1.20;99.90;;;;;;5080996;28;20182;-83
2022/03/07 08:08:21;;;;;;;8.05;4.97;;;1.50;99.90;;;;;;5082847;27;20066;-83
2022/03/07 08:10:47;;;;;;;7.28;4.90;;;1.50;99.90;;;;;;5099877;27;20063;-84
2022/03/07 08:13:13;;;;;;;6.35;3.88;;;1.60;99.90;;;;;;5082540;28;20096;-81
2022/03/07 08:15:40;;;;;;;7.43;5.07;;;2.10;99.90;;;;;;5081590;28;20035;-82
2022/03/07 08:18:07;;;;;;;9.63;3.95;;;2.10;99.90;;;;;;5081923;27;20035;-82
2022/03/07 08:20:32;;;;;;;10.88;4.53;;;2.00;99.90;;;;;;5099063;27;20118;-83
2022/03/07 08:22:58;;;;;;;6.95;4.97;;;2.10;99.90;;;;;;5093767;28;20104;-81
2022/03/07 08:25:24;;;;;;;6.18;4.22;;;2.40;99.90;;;;;;5079194;27;20207;-81
2022/03/07 08:27:50;;;;;;;6.40;4.75;;;2.10;99.90;;;;;;5066571;27;20394;-80
2022/03/07 08:30:17;;;;;;;5.68;4.45;;;2.30;99.90;;;;;;5079922;28;20032;-81
2022/03/07 08:32:43;;;;;;;5.63;3.53;;;2.30;99.90;;;;;;5094120;28;20048;-81
2022/03/07 08:35:09;;;;;;;4.05;3.28;;;2.20;99.90;;;;;;5076315;28;20063;-81
2022/03/07 08:37:35;;;;;;;5.85;3.45;;;2.40;99.90;;;;;;5082359;28;20036;-82
2022/03/07 08:40:01;;;;;;;6.35;3.55;;;2.70;99.90;;;;;;5073160;28;20037;-81
2022/03/07 08:42:27;;;;;;;4.97;4.07;;;2.20;99.90;;;;;;5080195;28;20487;-82
2022/03/07 08:44:52;;;;;;;5.50;4.45;;;2.50;99.90;;;;;;5071396;28;20023;-81
2022/03/07 08:47:19;;;;;;;5.65;3.38;;;3.10;99.90;;;;;;5082232;27;20066;-81
2022/03/07 08:49:44;;;;;;;7.07;3.95;;;3.00;99.90;;;;;;5073663;28;20662;-80
2022/03/07 08:52:10;;;;;;;5.72;4.22;;;3.10;99.90;;;;;;5078566;28;20032;-81
2022/03/07 08:54:36;;;;;;;4.88;4.00;;;2.70;99.90;;;;;;5095762;28;21575;-83
2022/03/07 08:57:07;;;;;;;5.90;4.65;;;2.60;99.90;;;;;;5084464;28;20725;-84
2022/03/07 08:59:33;;;;;;;5.00;4.05;;;2.20;99.90;;;;;;5073333;28;20126;-84
2022/03/07 09:01:58;;;;;;;3.28;2.65;;;2.50;99.90;;;;;;5082921;28;20044;-84
2022/03/07 09:04:25;;;;;;;5.55;3.53;;;3.10;99.90;;;;;;5078545;27;20383;-82
2022/03/07 09:06:57;;;;;;;4.35;3.92;;;3.30;99.90;;;;;;5070746;27;20028;-84
2022/03/07 09:09:23;;;;;;;5.18;3.30;;;2.70;99.90;;;;;;5083552;27;20032;-84
2022/03/07 09:11:48;;;;;;;5.35;4.20;;;3.10;99.90;;;;;;5080867;28;20712;-84
2022/03/07 09:14:14;;;;;;;6.10;4.25;;;3.10;99.90;;;;;;5096858;28;20506;-83
2022/03/07 09:16:41;;;;;;;4.93;3.88;;;3.20;99.90;;;;;;5087798;28;20100;-84
2022/03/07 09:19:07;;;;;;;3.08;2.65;;;2.70;99.90;;;;;;5083016;27;20123;-85
2022/03/07 09:21:33;;;;;;;4.10;3.38;;;3.20;99.90;;;;;;5082016;28;20483;-85
2022/03/07 09:23:58;;;;;;;5.43;4.25;;;3.50;99.90;;;;;;5111231;27;20028;-85
2022/03/07 09:26:24;;;;;;;5.13;3.90;;;3.50;99.90;;;;;;5072557;28;20032;-83
2022/03/07 09:28:49;;;;;;;5.93;4.55;;;3.80;99.90;;;;;;5082108;28;20585;-84
2022/03/07 09:31:15;;;;;;;6.80;4.25;;;3.70;99.90;;;;;;5085558;27;20032;-84
2022/03/07 09:33:41;;;;;;;6.18;4.30;;;3.90;99.90;;;;;;5072238;28;20028;-84
2022/03/07 09:36:06;;;;;;;6.45;3.80;;;3.90;99.90;;;;;;5077698;27;20103;-84
2022/03/07 09:38:34;;;;;;;5.93;4.15;;;4.10;99.90;;;;;;5101377;28;20114;-86
2022/03/07 09:41:00;;;;;;;4.00;3.60;;;4.20;99.90;;;;;;5085829;27;20036;-85
2022/03/07 09:43:26;;;;;;;5.45;4.13;;;4.00;99.90;;;;;;5084356;27;20072;-86
2022/03/07 09:45:52;;;;;;;5.13;3.83;;;4.60;99.90;;;;;;5072575;28;20162;-85
2022/03/07 09:48:17;;;;;;;4.43;3.03;;;4.60;99.90;;;;;;5095111;28;20036;-84
2022/03/07 09:50:43;;;;;;;4.53;3.70;;;4.90;99.80;;;;;;5098559;28;20028;-85
2022/03/07 09:53:09;;;;;;;5.97;3.20;;;4.50;99.90;;;;;;5094625;27;20034;-84
2022/03/07 09:55:35;;;;;;;4.72;3.83;;;4.40;99.90;;;;;;5079762;28;20128;-83
2022/03/07 09:58:01;;;;;;;5.82;3.63;;;5.10;99.90;;;;;;5080142;27;20040;-85
2022/03/07 10:00:27;;;;;;;4.63;3.55;;;4.40;99.90;;;;;;5077276;27;20032;-85
2022/03/07 10:02:57;;;;;;;3.40;2.85;;;4.10;99.90;;;;;;5080682;27;20411;-85
2022/03/07 10:05:25;;;;;;;3.55;2.90;;;4.90;99.90;;;;;;5078842;27;20093;-84
2022/03/07 10:07:51;;;;;;;3.53;2.55;;;4.20;99.90;;;;;;5068152;28;20237;-85
2022/03/07 10:10:17;;;;;;;5.75;3.20;;;4.90;99.90;;;;;;5080545;27;20115;-84
2022/03/07 10:12:46;;;;;;;4.88;2.75;;;4.90;99.90;;;;;;5081814;28;20439;-84
2022/03/07 10:15:13;;;;;;;3.70;3.13;;;5.30;99.50;;;;;;5083561;28;20056;-84
2022/03/07 17:09:23;;;;;;;7.05;3.63;;;6.20;83.80;;;;;;5013170;28;20424;-85
2022/03/07 17:11:50;;;;;;;5.78;4.05;;;5.90;84.40;;;;;;4975737;28;20029;-83
2022/03/07 17:14:15;;;;;;;10.00;4.43;;;5.90;83.10;;;;;;4984871;28;20042;-86
2022/03/07 17:16:41;;;;;;;8.05;4.15;;;5.70;85.20;;;;;;4974732;28;20030;-86
2022/03/07 17:19:07;;;;;;;9.52;5.32;;;6.00;83.50;;;;;;4968424;28;20033;-85
2022/03/07 17:21:33;;;;;;;5.88;3.88;;;5.80;84.70;;;;;;4969254;28;20116;-85
2022/03/07 17:23:59;;;;;;;10.57;4.88;;;5.60;84.60;;;;;;4973545;28;20096;-85
2022/03/07 17:26:25;;;;;;;5.80;4.57;;;5.50;85.50;;;;;;4975893;28;20087;-85
2022/03/07 17:28:50;;;;;;;4.82;4.00;;;5.20;86.00;;;;;;4970582;28;20564;-83
2022/03/07 17:31:16;;;;;;;6.53;3.63;;;5.30;85.80;;;;;;4972209;28;20128;-83
2022/03/07 17:33:42;;;;;;;7.10;3.85;;;5.30;85.70;;;;;;4966097;28;20084;-84
2022/03/07 17:36:07;;;;;;;6.85;3.95;;;5.50;84.90;;;;;;4971978;28;20034;-84
2022/03/07 17:38:36;;;;;;;4.47;3.65;;;5.40;86.40;;;;;;4951741;28;20038;-85
2022/03/07 17:41:02;;;;;;;6.03;4.03;;;5.70;84.60;;;;;;5001095;28;20083;-85
2022/03/07 17:43:27;;;;;;;6.82;4.10;;;5.50;85.00;;;;;;4971507;28;20104;-85
2022/03/07 17:45:54;;;;;;;6.40;4.05;;;5.30;87.00;;;;;;4989714;28;20113;-83
2022/03/07 17:48:20;;;;;;;7.90;4.05;;;5.20;85.60;;;;;;4967697;28;20061;-84
2022/03/07 17:50:46;;;;;;;7.93;4.25;;;5.20;85.60;;;;;;4971055;28;20025;-84
2022/03/07 17:53:12;;;;;;;6.78;4.50;;;5.30;84.20;;;;;;4968577;28;20048;-84
2022/03/07 17:55:39;;;;;;;7.78;4.43;;;5.30;84.80;;;;;;4980892;28;20033;-84
2022/03/07 17:58:05;;;;;;;5.78;3.90;;;5.20;84.70;;;;;;4975324;28;20442;-84
2022/03/07 18:00:32;;;;;;;5.93;4.20;;;5.10;84.90;;;;;;4987695;28;20045;-84
2022/03/07 18:02:58;;;;;;;6.82;4.30;;;5.20;82.40;;;;;;4965752;28;20071;-83
2022/03/07 18:05:24;;;;;;;9.50;4.03;;;5.30;85.80;;;;;;4975583;28;20064;-82
2022/03/07 18:07:49;;;;;;;8.38;4.07;;;5.30;83.60;;;;;;4981795;28;20156;-84
2022/03/07 18:10:15;;;;;;;7.40;3.72;;;5.20;87.70;;;;;;4974838;28;20112;-84
2022/03/07 18:12:47;;;;;;;4.93;3.78;;;5.10;88.10;;;;;;4988538;28;20184;-84
2022/03/07 18:15:13;;;;;;;4.05;3.33;;;5.30;86.40;;;;;;5007938;28;20460;-83
2022/03/07 18:17:38;;;;;;;6.80;3.92;;;5.30;85.30;;;;;;4992283;28;20083;-83
2022/03/07 18:20:05;;;;;;;5.47;3.45;;;5.10;83.70;;;;;;5005971;28;20037;-83
2022/03/07 18:22:30;;;;;;;6.82;4.13;;;5.00;89.70;;;;;;4994581;28;20044;-84
2022/03/07 18:24:56;;;;;;;6.82;4.53;;;4.90;85.40;;;;;;4991866;28;20112;-85
2022/03/07 18:27:22;;;;;;;6.00;3.92;;;4.70;85.00;;;;;;4996982;28;20125;-83
2022/03/07 18:29:47;;;;;;;6.30;4.90;;;4.50;85.10;;;;;;4993278;28;20159;-85
2022/03/07 18:32:13;;;;;;;7.07;4.18;;;4.40;88.30;;;;;;4968105;28;20041;-84
2022/03/07 18:34:39;;;;;;;5.38;4.30;;;4.10;88.20;;;;;;4645901;28;9999814;-85
2022/03/07 18:37:11;;;;;;;6.25;4.65;;;4.00;89.10;;;;;;4991163;28;20038;-84
2022/03/07 18:39:40;;;;;;;6.68;4.65;;;4.00;88.70;;;;;;4992088;28;20405;-83
2022/03/07 18:42:06;;;;;;;5.15;4.22;;;4.10;89.40;;;;;;4970629;28;20050;-85
2022/03/07 18:44:31;;;;;;;10.32;4.70;;;4.10;87.10;;;;;;4972654;28;20524;-84
2022/03/07 18:46:57;;;;;;;5.75;4.43;;;4.10;87.10;;;;;;4978526;28;20032;-85
2022/03/07 18:49:22;;;;;;;10.32;4.57;;;4.20;85.90;;;;;;4988964;28;20049;-84
2022/03/07 18:51:48;;;;;;;6.28;4.90;;;4.10;85.70;;;;;;4969410;28;21814;-84
2022/03/07 18:54:14;;;;;;;9.55;5.03;;;3.90;86.10;;;;;;4987260;28;20025;-85
2022/03/07 18:56:39;;;;;;;7.72;4.78;;;3.70;90.30;;;;;;4989898;28;20030;-84
2022/03/07 18:59:05;;;;;;;8.20;5.15;;;3.60;91.00;;;;;;4975063;28;20497;-84
2022/03/07 19:01:30;;;;;;;11.07;5.15;;;3.50;92.60;;;;;;5003164;28;20317;-84
2022/03/07 19:03:56;;;;;;;6.97;4.63;;;3.40;91.40;;;;;;4989032;28;20073;-84
2022/03/07 19:06:21;;;;;;;8.38;5.70;;;3.40;92.20;;;;;;4991304;28;20034;-84
2022/03/07 19:08:47;;;;;;;8.55;4.82;;;3.30;92.40;;;;;;4973956;28;20060;-85
2022/03/07 19:11:14;;;;;;;7.40;4.60;;;3.40;90.90;;;;;;4988831;28;20113;-83
2022/03/07 19:13:39;;;;;;;8.40;4.55;;;3.40;89.10;;;;;;4993813;28;20030;-84
2022/03/07 19:16:05;;;;;;;8.00;4.75;;;3.50;90.10;;;;;;4974567;28;20037;-85
2022/03/07 19:18:31;;;;;;;9.48;4.93;;;3.50;88.80;;;;;;4978591;28;20537;-84
2022/03/07 19:20:57;;;;;;;11.00;4.88;;;3.50;88.70;;;;;;4985919;28;20030;-84
2022/03/07 19:23:23;;;;;;;7.43;5.03;;;3.40;89.00;;;;;;4978359;28;20143;-83